<?xml version="1.0" encoding="UTF-8" standalone="no" ?>
<gpx xmlns="http://www.topografix.com/GPX/1/1" xmlns:xsi="http://www.w3.org/2001/XMLSchema-instance" xsi:schemaLocation="http://www.topografix.com/GPX/1/1 http://www.topografix.com/GPX/1/1/gpx.xsd" version="1.1" creator="VisuGPX - https://www.visugpx.com">
  <metadata>
    <name>Valvignères le tour des Crêtes DEB N3 IBP 77 21km d+ 700m</name>
  </metadata>
  <trk>
    <name><![CDATA[Valvignères : le tour des Crêtes]]></name>
    <extensions>
      <line xmlns="http://www.topografix.com/GPX/gpx_style/0/2">
        <color>0000FF</color>
        <width>4</width>
      </line>
    </extensions>
    <trkseg>
      <trkpt lat="44.50122" lon="4.57894">
        <ele>176.8</ele>
      </trkpt>
      <trkpt lat="44.50061" lon="4.57684">
        <ele>179.1</ele>
      </trkpt>
      <trkpt lat="44.50025" lon="4.57569">
        <ele>175.7</ele>
      </trkpt>
      <trkpt lat="44.50008" lon="4.57502">
        <ele>177.4</ele>
      </trkpt>
      <trkpt lat="44.50007" lon="4.57448">
        <ele>182</ele>
        <time>2021-02-17T10:40:35+01:00</time>
      </trkpt>
      <trkpt lat="44.50019" lon="4.57429">
        <ele>183</ele>
        <time>2021-02-17T10:40:40+01:00</time>
      </trkpt>
      <trkpt lat="44.50028" lon="4.57418">
        <ele>184</ele>
        <time>2021-02-17T10:40:45+01:00</time>
      </trkpt>
      <trkpt lat="44.50033" lon="4.57408">
        <ele>184</ele>
        <time>2021-02-17T10:40:50+01:00</time>
      </trkpt>
      <trkpt lat="44.50038" lon="4.57398">
        <ele>184</ele>
        <time>2021-02-17T10:40:55+01:00</time>
      </trkpt>
      <trkpt lat="44.50031" lon="4.57389">
        <ele>184</ele>
        <time>2021-02-17T10:41:00+01:00</time>
      </trkpt>
      <trkpt lat="44.50025" lon="4.57382">
        <ele>184</ele>
        <time>2021-02-17T10:41:05+01:00</time>
      </trkpt>
      <trkpt lat="44.50017" lon="4.57376">
        <ele>184</ele>
        <time>2021-02-17T10:41:10+01:00</time>
      </trkpt>
      <trkpt lat="44.5001" lon="4.57366">
        <ele>184</ele>
        <time>2021-02-17T10:41:15+01:00</time>
      </trkpt>
      <trkpt lat="44.5" lon="4.57359">
        <ele>184</ele>
        <time>2021-02-17T10:41:20+01:00</time>
      </trkpt>
      <trkpt lat="44.49992" lon="4.57356">
        <ele>184</ele>
        <time>2021-02-17T10:41:25+01:00</time>
      </trkpt>
      <trkpt lat="44.49981" lon="4.57353">
        <ele>184</ele>
        <time>2021-02-17T10:41:30+01:00</time>
      </trkpt>
      <trkpt lat="44.49968" lon="4.57353">
        <ele>184</ele>
        <time>2021-02-17T10:41:35+01:00</time>
      </trkpt>
      <trkpt lat="44.49963" lon="4.57336">
        <ele>184</ele>
        <time>2021-02-17T10:41:40+01:00</time>
      </trkpt>
      <trkpt lat="44.49955" lon="4.57296">
        <ele>186</ele>
        <time>2021-02-17T10:41:45+01:00</time>
      </trkpt>
      <trkpt lat="44.49948" lon="4.57278">
        <ele>186</ele>
        <time>2021-02-17T10:41:50+01:00</time>
      </trkpt>
      <trkpt lat="44.49939" lon="4.5725">
        <ele>188</ele>
        <time>2021-02-17T10:41:55+01:00</time>
      </trkpt>
      <trkpt lat="44.49949" lon="4.57243">
        <ele>188</ele>
        <time>2021-02-17T10:42:00+01:00</time>
      </trkpt>
      <trkpt lat="44.49955" lon="4.57237">
        <ele>188</ele>
        <time>2021-02-17T10:42:05+01:00</time>
      </trkpt>
      <trkpt lat="44.49958" lon="4.57215">
        <ele>188</ele>
        <time>2021-02-17T10:42:10+01:00</time>
      </trkpt>
      <trkpt lat="44.49957" lon="4.5717">
        <ele>189</ele>
        <time>2021-02-17T10:42:15+01:00</time>
      </trkpt>
      <trkpt lat="44.49958" lon="4.57126">
        <ele>190</ele>
        <time>2021-02-17T10:42:20+01:00</time>
      </trkpt>
      <trkpt lat="44.49961" lon="4.57067">
        <ele>190</ele>
        <time>2021-02-17T10:42:25+01:00</time>
      </trkpt>
      <trkpt lat="44.49962" lon="4.57044">
        <ele>191</ele>
        <time>2021-02-17T10:42:30+01:00</time>
      </trkpt>
      <trkpt lat="44.49974" lon="4.57021">
        <ele>192</ele>
        <time>2021-02-17T10:42:35+01:00</time>
      </trkpt>
      <trkpt lat="44.49972" lon="4.57001">
        <ele>192</ele>
        <time>2021-02-17T10:42:40+01:00</time>
      </trkpt>
      <trkpt lat="44.49966" lon="4.56985">
        <ele>193</ele>
        <time>2021-02-17T10:42:45+01:00</time>
      </trkpt>
      <trkpt lat="44.49981" lon="4.56953">
        <ele>193</ele>
        <time>2021-02-17T10:42:50+01:00</time>
      </trkpt>
      <trkpt lat="44.49989" lon="4.56914">
        <ele>194</ele>
        <time>2021-02-17T10:42:55+01:00</time>
      </trkpt>
      <trkpt lat="44.50023" lon="4.56899">
        <ele>195</ele>
        <time>2021-02-17T10:43:00+01:00</time>
      </trkpt>
      <trkpt lat="44.50065" lon="4.5689">
        <ele>198</ele>
        <time>2021-02-17T10:43:05+01:00</time>
      </trkpt>
      <trkpt lat="44.50084" lon="4.569">
        <ele>199</ele>
        <time>2021-02-17T10:43:10+01:00</time>
      </trkpt>
      <trkpt lat="44.50104" lon="4.56913">
        <ele>199</ele>
        <time>2021-02-17T10:43:15+01:00</time>
      </trkpt>
      <trkpt lat="44.50127" lon="4.56909">
        <ele>200</ele>
        <time>2021-02-17T10:43:20+01:00</time>
      </trkpt>
      <trkpt lat="44.50157" lon="4.56902">
        <ele>201</ele>
        <time>2021-02-17T10:43:25+01:00</time>
      </trkpt>
      <trkpt lat="44.50183" lon="4.56914">
        <ele>202</ele>
        <time>2021-02-17T10:43:30+01:00</time>
      </trkpt>
      <trkpt lat="44.50212" lon="4.56935">
        <ele>201</ele>
        <time>2021-02-17T10:43:35+01:00</time>
      </trkpt>
      <trkpt lat="44.50235" lon="4.5695">
        <ele>201</ele>
        <time>2021-02-17T10:43:40+01:00</time>
      </trkpt>
      <trkpt lat="44.50257" lon="4.56963">
        <ele>201</ele>
        <time>2021-02-17T10:43:45+01:00</time>
      </trkpt>
      <trkpt lat="44.50273" lon="4.56923">
        <ele>205</ele>
        <time>2021-02-17T10:43:50+01:00</time>
      </trkpt>
      <trkpt lat="44.50287" lon="4.5688">
        <ele>208</ele>
        <time>2021-02-17T10:43:55+01:00</time>
      </trkpt>
      <trkpt lat="44.50296" lon="4.5686">
        <ele>209</ele>
        <time>2021-02-17T10:44:00+01:00</time>
      </trkpt>
      <trkpt lat="44.50301" lon="4.56844">
        <ele>210</ele>
        <time>2021-02-17T10:44:05+01:00</time>
      </trkpt>
      <trkpt lat="44.50306" lon="4.56827">
        <ele>212</ele>
        <time>2021-02-17T10:44:10+01:00</time>
      </trkpt>
      <trkpt lat="44.50333" lon="4.56833">
        <ele>214</ele>
        <time>2021-02-17T10:44:15+01:00</time>
      </trkpt>
      <trkpt lat="44.5036" lon="4.56842">
        <ele>217</ele>
        <time>2021-02-17T10:44:20+01:00</time>
      </trkpt>
      <trkpt lat="44.50385" lon="4.56882">
        <ele>217</ele>
        <time>2021-02-17T10:44:25+01:00</time>
      </trkpt>
      <trkpt lat="44.50422" lon="4.56925">
        <ele>217</ele>
        <time>2021-02-17T10:44:30+01:00</time>
      </trkpt>
      <trkpt lat="44.50479" lon="4.56965">
        <ele>218</ele>
        <time>2021-02-17T10:44:35+01:00</time>
      </trkpt>
      <trkpt lat="44.50523" lon="4.57008">
        <ele>215</ele>
        <time>2021-02-17T10:44:40+01:00</time>
      </trkpt>
      <trkpt lat="44.50557" lon="4.57036">
        <ele>213</ele>
        <time>2021-02-17T10:44:45+01:00</time>
      </trkpt>
      <trkpt lat="44.50581" lon="4.57049">
        <ele>212</ele>
        <time>2021-02-17T10:44:50+01:00</time>
      </trkpt>
      <trkpt lat="44.50603" lon="4.5707">
        <ele>210</ele>
        <time>2021-02-17T10:44:55+01:00</time>
      </trkpt>
      <trkpt lat="44.5062" lon="4.57079">
        <ele>209</ele>
        <time>2021-02-17T10:45:00+01:00</time>
      </trkpt>
      <trkpt lat="44.50621" lon="4.57095">
        <ele>209</ele>
        <time>2021-02-17T10:45:05+01:00</time>
      </trkpt>
      <trkpt lat="44.50655" lon="4.57076">
        <ele>210</ele>
        <time>2021-02-17T10:45:10+01:00</time>
      </trkpt>
      <trkpt lat="44.50681" lon="4.57039">
        <ele>212</ele>
        <time>2021-02-17T10:45:15+01:00</time>
      </trkpt>
      <trkpt lat="44.50701" lon="4.57013">
        <ele>213</ele>
        <time>2021-02-17T10:45:20+01:00</time>
      </trkpt>
      <trkpt lat="44.50728" lon="4.56982">
        <ele>213</ele>
        <time>2021-02-17T10:45:25+01:00</time>
      </trkpt>
      <trkpt lat="44.50749" lon="4.56952">
        <ele>215</ele>
        <time>2021-02-17T10:45:30+01:00</time>
      </trkpt>
      <trkpt lat="44.50767" lon="4.56927">
        <ele>216</ele>
        <time>2021-02-17T10:45:35+01:00</time>
      </trkpt>
      <trkpt lat="44.50781" lon="4.56906">
        <ele>216</ele>
        <time>2021-02-17T10:45:40+01:00</time>
      </trkpt>
      <trkpt lat="44.50788" lon="4.56885">
        <ele>217</ele>
        <time>2021-02-17T10:45:45+01:00</time>
      </trkpt>
      <trkpt lat="44.50794" lon="4.56854">
        <ele>219</ele>
        <time>2021-02-17T10:45:50+01:00</time>
      </trkpt>
      <trkpt lat="44.50803" lon="4.56809">
        <ele>221</ele>
        <time>2021-02-17T10:45:55+01:00</time>
      </trkpt>
      <trkpt lat="44.50808" lon="4.56755">
        <ele>225</ele>
        <time>2021-02-17T10:46:00+01:00</time>
      </trkpt>
      <trkpt lat="44.50811" lon="4.56721">
        <ele>226</ele>
        <time>2021-02-17T10:46:05+01:00</time>
      </trkpt>
      <trkpt lat="44.50811" lon="4.56702">
        <ele>227</ele>
        <time>2021-02-17T10:46:10+01:00</time>
      </trkpt>
      <trkpt lat="44.50855" lon="4.56689">
        <ele>228</ele>
        <time>2021-02-17T10:46:15+01:00</time>
      </trkpt>
      <trkpt lat="44.50903" lon="4.56682">
        <ele>230</ele>
        <time>2021-02-17T10:46:20+01:00</time>
      </trkpt>
      <trkpt lat="44.50933" lon="4.56652">
        <ele>232</ele>
        <time>2021-02-17T10:46:25+01:00</time>
      </trkpt>
      <trkpt lat="44.50961" lon="4.56641">
        <ele>233</ele>
        <time>2021-02-17T10:46:30+01:00</time>
      </trkpt>
      <trkpt lat="44.50994" lon="4.56654">
        <ele>232</ele>
        <time>2021-02-17T10:46:35+01:00</time>
      </trkpt>
      <trkpt lat="44.5102" lon="4.56669">
        <ele>231</ele>
        <time>2021-02-17T10:46:40+01:00</time>
      </trkpt>
      <trkpt lat="44.51043" lon="4.56665">
        <ele>233</ele>
        <time>2021-02-17T10:46:45+01:00</time>
      </trkpt>
      <trkpt lat="44.51085" lon="4.5662">
        <ele>236</ele>
        <time>2021-02-17T10:46:50+01:00</time>
      </trkpt>
      <trkpt lat="44.51121" lon="4.56594">
        <ele>239</ele>
        <time>2021-02-17T10:46:55+01:00</time>
      </trkpt>
      <trkpt lat="44.5115" lon="4.56588">
        <ele>240</ele>
        <time>2021-02-17T10:47:00+01:00</time>
      </trkpt>
      <trkpt lat="44.51169" lon="4.56584">
        <ele>241</ele>
        <time>2021-02-17T10:47:05+01:00</time>
      </trkpt>
      <trkpt lat="44.51172" lon="4.56545">
        <ele>244</ele>
        <time>2021-02-17T10:47:10+01:00</time>
      </trkpt>
      <trkpt lat="44.51189" lon="4.56476">
        <ele>250</ele>
        <time>2021-02-17T10:47:15+01:00</time>
      </trkpt>
      <trkpt lat="44.51198" lon="4.56414">
        <ele>254</ele>
        <time>2021-02-17T10:47:20+01:00</time>
      </trkpt>
      <trkpt lat="44.51221" lon="4.5632">
        <ele>261</ele>
        <time>2021-02-17T10:47:25+01:00</time>
      </trkpt>
      <trkpt lat="44.51256" lon="4.56257">
        <ele>264</ele>
        <time>2021-02-17T10:47:30+01:00</time>
      </trkpt>
      <trkpt lat="44.51299" lon="4.56214">
        <ele>274</ele>
        <time>2021-02-17T10:47:35+01:00</time>
      </trkpt>
      <trkpt lat="44.51314" lon="4.56148">
        <ele>277</ele>
        <time>2021-02-17T10:47:40+01:00</time>
      </trkpt>
      <trkpt lat="44.51334" lon="4.56116">
        <ele>281</ele>
        <time>2021-02-17T10:47:45+01:00</time>
      </trkpt>
      <trkpt lat="44.51355" lon="4.56096">
        <ele>287</ele>
        <time>2021-02-17T10:47:50+01:00</time>
      </trkpt>
      <trkpt lat="44.51372" lon="4.56069">
        <ele>293</ele>
        <time>2021-02-17T10:47:55+01:00</time>
      </trkpt>
      <trkpt lat="44.51385" lon="4.56041">
        <ele>297</ele>
        <time>2021-02-17T10:48:00+01:00</time>
      </trkpt>
      <trkpt lat="44.51389" lon="4.56013">
        <ele>298</ele>
        <time>2021-02-17T10:48:05+01:00</time>
      </trkpt>
      <trkpt lat="44.51391" lon="4.55981">
        <ele>301</ele>
        <time>2021-02-17T10:48:10+01:00</time>
      </trkpt>
      <trkpt lat="44.51391" lon="4.55951">
        <ele>304</ele>
        <time>2021-02-17T10:48:15+01:00</time>
      </trkpt>
      <trkpt lat="44.51409" lon="4.55951">
        <ele>305</ele>
        <time>2021-02-17T10:48:20+01:00</time>
      </trkpt>
      <trkpt lat="44.51412" lon="4.55908">
        <ele>310</ele>
        <time>2021-02-17T10:48:25+01:00</time>
      </trkpt>
      <trkpt lat="44.51395" lon="4.5589">
        <ele>312</ele>
        <time>2021-02-17T10:48:30+01:00</time>
      </trkpt>
      <trkpt lat="44.51369" lon="4.55916">
        <ele>308</ele>
        <time>2021-02-17T10:48:35+01:00</time>
      </trkpt>
      <trkpt lat="44.51349" lon="4.55933">
        <ele>305</ele>
        <time>2021-02-17T10:48:40+01:00</time>
      </trkpt>
      <trkpt lat="44.51294" lon="4.55918">
        <ele>309</ele>
        <time>2021-02-17T10:48:45+01:00</time>
      </trkpt>
      <trkpt lat="44.51216" lon="4.55884">
        <ele>318</ele>
        <time>2021-02-17T10:48:50+01:00</time>
      </trkpt>
      <trkpt lat="44.51207" lon="4.55867">
        <ele>321</ele>
        <time>2021-02-17T10:48:55+01:00</time>
      </trkpt>
      <trkpt lat="44.51276" lon="4.55832">
        <ele>327</ele>
        <time>2021-02-17T10:49:00+01:00</time>
      </trkpt>
      <trkpt lat="44.51336" lon="4.55781">
        <ele>333</ele>
        <time>2021-02-17T10:49:05+01:00</time>
      </trkpt>
      <trkpt lat="44.51339" lon="4.55766">
        <ele>337</ele>
        <time>2021-02-17T10:49:10+01:00</time>
      </trkpt>
      <trkpt lat="44.51284" lon="4.55783">
        <ele>338</ele>
        <time>2021-02-17T10:49:15+01:00</time>
      </trkpt>
      <trkpt lat="44.5123" lon="4.55766">
        <ele>346</ele>
        <time>2021-02-17T10:49:20+01:00</time>
      </trkpt>
      <trkpt lat="44.51209" lon="4.55755">
        <ele>347</ele>
        <time>2021-02-17T10:49:25+01:00</time>
      </trkpt>
      <trkpt lat="44.51193" lon="4.55719">
        <ele>358</ele>
        <time>2021-02-17T10:49:30+01:00</time>
      </trkpt>
      <trkpt lat="44.51184" lon="4.55687">
        <ele>368</ele>
        <time>2021-02-17T10:49:35+01:00</time>
      </trkpt>
      <trkpt lat="44.5119" lon="4.5568">
        <ele>370</ele>
        <time>2021-02-17T10:49:40+01:00</time>
      </trkpt>
      <trkpt lat="44.51207" lon="4.55706">
        <ele>363</ele>
        <time>2021-02-17T10:49:45+01:00</time>
      </trkpt>
      <trkpt lat="44.5123" lon="4.55723">
        <ele>359</ele>
        <time>2021-02-17T10:49:50+01:00</time>
      </trkpt>
      <trkpt lat="44.51281" lon="4.55708">
        <ele>361</ele>
        <time>2021-02-17T10:49:55+01:00</time>
      </trkpt>
      <trkpt lat="44.5131" lon="4.55646">
        <ele>376</ele>
        <time>2021-02-17T10:50:00+01:00</time>
      </trkpt>
      <trkpt lat="44.51325" lon="4.55627">
        <ele>380</ele>
        <time>2021-02-17T10:50:05+01:00</time>
      </trkpt>
      <trkpt lat="44.51345" lon="4.55622">
        <ele>380</ele>
        <time>2021-02-17T10:50:10+01:00</time>
      </trkpt>
      <trkpt lat="44.51359" lon="4.55605">
        <ele>387</ele>
        <time>2021-02-17T10:50:15+01:00</time>
      </trkpt>
      <trkpt lat="44.51417" lon="4.55601">
        <ele>391</ele>
        <time>2021-02-17T10:50:20+01:00</time>
      </trkpt>
      <trkpt lat="44.5144" lon="4.55644">
        <ele>383</ele>
        <time>2021-02-17T10:50:25+01:00</time>
      </trkpt>
      <trkpt lat="44.51504" lon="4.55663">
        <ele>398</ele>
        <time>2021-02-17T10:50:30+01:00</time>
      </trkpt>
      <trkpt lat="44.51533" lon="4.55661">
        <ele>408</ele>
        <time>2021-02-17T10:50:35+01:00</time>
      </trkpt>
      <trkpt lat="44.51562" lon="4.55689">
        <ele>409</ele>
        <time>2021-02-17T10:50:40+01:00</time>
      </trkpt>
      <trkpt lat="44.516" lon="4.55725">
        <ele>410</ele>
        <time>2021-02-17T10:50:45+01:00</time>
      </trkpt>
      <trkpt lat="44.51645" lon="4.55766">
        <ele>410</ele>
        <time>2021-02-17T10:50:50+01:00</time>
      </trkpt>
      <trkpt lat="44.51677" lon="4.55772">
        <ele>414</ele>
        <time>2021-02-17T10:50:55+01:00</time>
      </trkpt>
      <trkpt lat="44.51732" lon="4.55766">
        <ele>423</ele>
        <time>2021-02-17T10:51:00+01:00</time>
      </trkpt>
      <trkpt lat="44.51776" lon="4.55766">
        <ele>427</ele>
        <time>2021-02-17T10:51:05+01:00</time>
      </trkpt>
      <trkpt lat="44.51761" lon="4.55732">
        <ele>430</ele>
        <time>2021-02-17T10:51:10+01:00</time>
      </trkpt>
      <trkpt lat="44.5171" lon="4.55702">
        <ele>433</ele>
        <time>2021-02-17T10:51:15+01:00</time>
      </trkpt>
      <trkpt lat="44.5168" lon="4.55714">
        <ele>431</ele>
        <time>2021-02-17T10:51:20+01:00</time>
      </trkpt>
      <trkpt lat="44.51645" lon="4.55706">
        <ele>427</ele>
        <time>2021-02-17T10:51:25+01:00</time>
      </trkpt>
      <trkpt lat="44.51613" lon="4.55669">
        <ele>429</ele>
        <time>2021-02-17T10:51:30+01:00</time>
      </trkpt>
      <trkpt lat="44.51594" lon="4.55616">
        <ele>439</ele>
        <time>2021-02-17T10:51:35+01:00</time>
      </trkpt>
      <trkpt lat="44.51568" lon="4.55584">
        <ele>442</ele>
        <time>2021-02-17T10:51:40+01:00</time>
      </trkpt>
      <trkpt lat="44.51531" lon="4.5556">
        <ele>439</ele>
        <time>2021-02-17T10:51:45+01:00</time>
      </trkpt>
      <trkpt lat="44.51504" lon="4.55526">
        <ele>443</ele>
        <time>2021-02-17T10:51:50+01:00</time>
      </trkpt>
      <trkpt lat="44.51475" lon="4.55496">
        <ele>445</ele>
        <time>2021-02-17T10:51:55+01:00</time>
      </trkpt>
      <trkpt lat="44.51443" lon="4.55463">
        <ele>447</ele>
        <time>2021-02-17T10:52:00+01:00</time>
      </trkpt>
      <trkpt lat="44.51389" lon="4.55427">
        <ele>451</ele>
        <time>2021-02-17T10:52:05+01:00</time>
      </trkpt>
      <trkpt lat="44.51346" lon="4.55427">
        <ele>448</ele>
        <time>2021-02-17T10:52:10+01:00</time>
      </trkpt>
      <trkpt lat="44.51297" lon="4.55438">
        <ele>443</ele>
        <time>2021-02-17T10:52:15+01:00</time>
      </trkpt>
      <trkpt lat="44.51261" lon="4.55451">
        <ele>440</ele>
        <time>2021-02-17T10:52:20+01:00</time>
      </trkpt>
      <trkpt lat="44.5125" lon="4.55446">
        <ele>441</ele>
        <time>2021-02-17T10:52:25+01:00</time>
      </trkpt>
      <trkpt lat="44.51244" lon="4.55421">
        <ele>446</ele>
        <time>2021-02-17T10:52:30+01:00</time>
      </trkpt>
      <trkpt lat="44.51161" lon="4.5544">
        <ele>434</ele>
        <time>2021-02-17T10:52:35+01:00</time>
      </trkpt>
      <trkpt lat="44.51079" lon="4.55481">
        <ele>430</ele>
        <time>2021-02-17T10:52:40+01:00</time>
      </trkpt>
      <trkpt lat="44.51023" lon="4.55506">
        <ele>436</ele>
        <time>2021-02-17T10:52:45+01:00</time>
      </trkpt>
      <trkpt lat="44.50982" lon="4.55513">
        <ele>438</ele>
        <time>2021-02-17T10:52:50+01:00</time>
      </trkpt>
      <trkpt lat="44.50933" lon="4.55498">
        <ele>440</ele>
        <time>2021-02-17T10:52:55+01:00</time>
      </trkpt>
      <trkpt lat="44.50811" lon="4.55453">
        <ele>442</ele>
        <time>2021-02-17T10:53:00+01:00</time>
      </trkpt>
      <trkpt lat="44.5076" lon="4.55427">
        <ele>447</ele>
        <time>2021-02-17T10:53:05+01:00</time>
      </trkpt>
      <trkpt lat="44.50719" lon="4.55405">
        <ele>446</ele>
        <time>2021-02-17T10:53:10+01:00</time>
      </trkpt>
      <trkpt lat="44.50676" lon="4.55354">
        <ele>446</ele>
        <time>2021-02-17T10:53:15+01:00</time>
      </trkpt>
      <trkpt lat="44.50661" lon="4.55337">
        <ele>448</ele>
        <time>2021-02-17T10:53:20+01:00</time>
      </trkpt>
      <trkpt lat="44.50641" lon="4.55318">
        <ele>448</ele>
        <time>2021-02-17T10:53:25+01:00</time>
      </trkpt>
      <trkpt lat="44.50587" lon="4.553">
        <ele>449</ele>
        <time>2021-02-17T10:53:30+01:00</time>
      </trkpt>
      <trkpt lat="44.50557" lon="4.55257">
        <ele>452</ele>
        <time>2021-02-17T10:53:35+01:00</time>
      </trkpt>
      <trkpt lat="44.50525" lon="4.55215">
        <ele>456</ele>
        <time>2021-02-17T10:53:40+01:00</time>
      </trkpt>
      <trkpt lat="44.505" lon="4.55195">
        <ele>450</ele>
        <time>2021-02-17T10:53:45+01:00</time>
      </trkpt>
      <trkpt lat="44.50468" lon="4.55174">
        <ele>459</ele>
        <time>2021-02-17T10:53:50+01:00</time>
      </trkpt>
      <trkpt lat="44.50447" lon="4.55142">
        <ele>464</ele>
        <time>2021-02-17T10:53:55+01:00</time>
      </trkpt>
      <trkpt lat="44.50428" lon="4.55092">
        <ele>474</ele>
        <time>2021-02-17T10:54:00+01:00</time>
      </trkpt>
      <trkpt lat="44.50411" lon="4.55054">
        <ele>478</ele>
        <time>2021-02-17T10:54:05+01:00</time>
      </trkpt>
      <trkpt lat="44.50387" lon="4.5503">
        <ele>478</ele>
        <time>2021-02-17T10:54:10+01:00</time>
      </trkpt>
      <trkpt lat="44.50375" lon="4.55004">
        <ele>481</ele>
        <time>2021-02-17T10:54:15+01:00</time>
      </trkpt>
      <trkpt lat="44.5033" lon="4.54981">
        <ele>482</ele>
        <time>2021-02-17T10:54:20+01:00</time>
      </trkpt>
      <trkpt lat="44.50283" lon="4.54961">
        <ele>482</ele>
        <time>2021-02-17T10:54:25+01:00</time>
      </trkpt>
      <trkpt lat="44.50238" lon="4.54955">
        <ele>482</ele>
        <time>2021-02-17T10:54:30+01:00</time>
      </trkpt>
      <trkpt lat="44.50192" lon="4.54972">
        <ele>482</ele>
        <time>2021-02-17T10:54:35+01:00</time>
      </trkpt>
      <trkpt lat="44.50153" lon="4.54987">
        <ele>482</ele>
        <time>2021-02-17T10:54:40+01:00</time>
      </trkpt>
      <trkpt lat="44.50133" lon="4.55">
        <ele>480</ele>
        <time>2021-02-17T10:54:45+01:00</time>
      </trkpt>
      <trkpt lat="44.50093" lon="4.54981">
        <ele>474</ele>
        <time>2021-02-17T10:54:50+01:00</time>
      </trkpt>
      <trkpt lat="44.50036" lon="4.54942">
        <ele>472</ele>
        <time>2021-02-17T10:54:55+01:00</time>
      </trkpt>
      <trkpt lat="44.50007" lon="4.54908">
        <ele>478</ele>
        <time>2021-02-17T10:55:00+01:00</time>
      </trkpt>
      <trkpt lat="44.49969" lon="4.54901">
        <ele>477</ele>
        <time>2021-02-17T10:55:05+01:00</time>
      </trkpt>
      <trkpt lat="44.49882" lon="4.54921">
        <ele>470</ele>
        <time>2021-02-17T10:55:10+01:00</time>
      </trkpt>
      <trkpt lat="44.4979" lon="4.54957">
        <ele>462</ele>
        <time>2021-02-17T10:55:15+01:00</time>
      </trkpt>
      <trkpt lat="44.49704" lon="4.54985">
        <ele>466</ele>
        <time>2021-02-17T10:55:20+01:00</time>
      </trkpt>
      <trkpt lat="44.49664" lon="4.54981">
        <ele>467</ele>
        <time>2021-02-17T10:55:25+01:00</time>
      </trkpt>
      <trkpt lat="44.49622" lon="4.54968">
        <ele>464</ele>
        <time>2021-02-17T10:55:30+01:00</time>
      </trkpt>
      <trkpt lat="44.49565" lon="4.54978">
        <ele>460</ele>
        <time>2021-02-17T10:55:35+01:00</time>
      </trkpt>
      <trkpt lat="44.49537" lon="4.54994">
        <ele>458</ele>
        <time>2021-02-17T10:55:40+01:00</time>
      </trkpt>
      <trkpt lat="44.49502" lon="4.55006">
        <ele>455</ele>
        <time>2021-02-17T10:55:45+01:00</time>
      </trkpt>
      <trkpt lat="44.4949" lon="4.55021">
        <ele>450</ele>
        <time>2021-02-17T10:55:50+01:00</time>
      </trkpt>
      <trkpt lat="44.49473" lon="4.55019">
        <ele>447</ele>
        <time>2021-02-17T10:55:55+01:00</time>
      </trkpt>
      <trkpt lat="44.49432" lon="4.55">
        <ele>441</ele>
        <time>2021-02-17T10:56:00+01:00</time>
      </trkpt>
      <trkpt lat="44.49377" lon="4.54981">
        <ele>436</ele>
        <time>2021-02-17T10:56:05+01:00</time>
      </trkpt>
      <trkpt lat="44.49355" lon="4.54966">
        <ele>436</ele>
        <time>2021-02-17T10:56:10+01:00</time>
      </trkpt>
      <trkpt lat="44.49288" lon="4.54933">
        <ele>443</ele>
        <time>2021-02-17T10:56:15+01:00</time>
      </trkpt>
      <trkpt lat="44.4924" lon="4.54891">
        <ele>447</ele>
        <time>2021-02-17T10:56:20+01:00</time>
      </trkpt>
      <trkpt lat="44.49182" lon="4.54878">
        <ele>446</ele>
        <time>2021-02-17T10:56:25+01:00</time>
      </trkpt>
      <trkpt lat="44.49143" lon="4.54854">
        <ele>442</ele>
        <time>2021-02-17T10:56:30+01:00</time>
      </trkpt>
      <trkpt lat="44.49098" lon="4.54813">
        <ele>437</ele>
        <time>2021-02-17T10:56:35+01:00</time>
      </trkpt>
      <trkpt lat="44.49058" lon="4.54779">
        <ele>435</ele>
        <time>2021-02-17T10:56:40+01:00</time>
      </trkpt>
      <trkpt lat="44.49026" lon="4.54749">
        <ele>440</ele>
        <time>2021-02-17T10:56:45+01:00</time>
      </trkpt>
      <trkpt lat="44.48982" lon="4.54706">
        <ele>450</ele>
        <time>2021-02-17T10:56:50+01:00</time>
      </trkpt>
      <trkpt lat="44.48957" lon="4.54687">
        <ele>454</ele>
        <time>2021-02-17T10:56:55+01:00</time>
      </trkpt>
      <trkpt lat="44.48937" lon="4.54644">
        <ele>465</ele>
        <time>2021-02-17T10:57:00+01:00</time>
      </trkpt>
      <trkpt lat="44.48916" lon="4.5456">
        <ele>482</ele>
        <time>2021-02-17T10:57:05+01:00</time>
      </trkpt>
      <trkpt lat="44.48873" lon="4.54491">
        <ele>483</ele>
        <time>2021-02-17T10:57:10+01:00</time>
      </trkpt>
      <trkpt lat="44.48865" lon="4.54466">
        <ele>481</ele>
        <time>2021-02-17T10:57:15+01:00</time>
      </trkpt>
      <trkpt lat="44.48826" lon="4.54444">
        <ele>479</ele>
        <time>2021-02-17T10:57:20+01:00</time>
      </trkpt>
      <trkpt lat="44.48774" lon="4.54391">
        <ele>474</ele>
        <time>2021-02-17T10:57:25+01:00</time>
      </trkpt>
      <trkpt lat="44.48741" lon="4.54345">
        <ele>476</ele>
        <time>2021-02-17T10:57:30+01:00</time>
      </trkpt>
      <trkpt lat="44.48714" lon="4.54298">
        <ele>480</ele>
        <time>2021-02-17T10:57:35+01:00</time>
      </trkpt>
      <trkpt lat="44.4868" lon="4.5423">
        <ele>490</ele>
        <time>2021-02-17T10:57:40+01:00</time>
      </trkpt>
      <trkpt lat="44.48673" lon="4.54197">
        <ele>492</ele>
        <time>2021-02-17T10:57:45+01:00</time>
      </trkpt>
      <trkpt lat="44.48674" lon="4.5418">
        <ele>492</ele>
        <time>2021-02-17T10:57:50+01:00</time>
      </trkpt>
      <trkpt lat="44.48631" lon="4.54139">
        <ele>480</ele>
        <time>2021-02-17T10:57:55+01:00</time>
      </trkpt>
      <trkpt lat="44.4857" lon="4.54105">
        <ele>466</ele>
        <time>2021-02-17T10:58:00+01:00</time>
      </trkpt>
      <trkpt lat="44.48536" lon="4.54084">
        <ele>463</ele>
        <time>2021-02-17T10:58:05+01:00</time>
      </trkpt>
      <trkpt lat="44.48472" lon="4.54049">
        <ele>457</ele>
        <time>2021-02-17T10:58:10+01:00</time>
      </trkpt>
      <trkpt lat="44.4838" lon="4.5397">
        <ele>466</ele>
        <time>2021-02-17T10:58:15+01:00</time>
      </trkpt>
      <trkpt lat="44.48342" lon="4.53921">
        <ele>476</ele>
        <time>2021-02-17T10:58:20+01:00</time>
      </trkpt>
      <trkpt lat="44.48305" lon="4.53839">
        <ele>481</ele>
        <time>2021-02-17T10:58:25+01:00</time>
      </trkpt>
      <trkpt lat="44.48276" lon="4.538">
        <ele>480</ele>
        <time>2021-02-17T10:58:30+01:00</time>
      </trkpt>
      <trkpt lat="44.4823" lon="4.5377">
        <ele>478</ele>
        <time>2021-02-17T10:58:35+01:00</time>
      </trkpt>
      <trkpt lat="44.48186" lon="4.53717">
        <ele>477</ele>
        <time>2021-02-17T10:58:40+01:00</time>
      </trkpt>
      <trkpt lat="44.48146" lon="4.53648">
        <ele>479</ele>
        <time>2021-02-17T10:58:45+01:00</time>
      </trkpt>
      <trkpt lat="44.48115" lon="4.53618">
        <ele>477</ele>
        <time>2021-02-17T10:58:50+01:00</time>
      </trkpt>
      <trkpt lat="44.48048" lon="4.53575">
        <ele>479</ele>
        <time>2021-02-17T10:58:55+01:00</time>
      </trkpt>
      <trkpt lat="44.48004" lon="4.53528">
        <ele>480</ele>
        <time>2021-02-17T10:59:00+01:00</time>
      </trkpt>
      <trkpt lat="44.4797" lon="4.53506">
        <ele>482</ele>
        <time>2021-02-17T10:59:05+01:00</time>
      </trkpt>
      <trkpt lat="44.47892" lon="4.53487">
        <ele>482</ele>
        <time>2021-02-17T10:59:10+01:00</time>
      </trkpt>
      <trkpt lat="44.47806" lon="4.53459">
        <ele>484</ele>
        <time>2021-02-17T10:59:15+01:00</time>
      </trkpt>
      <trkpt lat="44.47788" lon="4.53442">
        <ele>486</ele>
        <time>2021-02-17T10:59:20+01:00</time>
      </trkpt>
      <trkpt lat="44.47772" lon="4.53369">
        <ele>487</ele>
        <time>2021-02-17T10:59:25+01:00</time>
      </trkpt>
      <trkpt lat="44.47748" lon="4.53298">
        <ele>491</ele>
        <time>2021-02-17T10:59:30+01:00</time>
      </trkpt>
      <trkpt lat="44.47728" lon="4.53253">
        <ele>489</ele>
        <time>2021-02-17T10:59:35+01:00</time>
      </trkpt>
      <trkpt lat="44.47723" lon="4.53238">
        <ele>489</ele>
        <time>2021-02-17T10:59:40+01:00</time>
      </trkpt>
      <trkpt lat="44.47696" lon="4.53215">
        <ele>488</ele>
        <time>2021-02-17T10:59:45+01:00</time>
      </trkpt>
      <trkpt lat="44.47688" lon="4.53187">
        <ele>489</ele>
        <time>2021-02-17T10:59:50+01:00</time>
      </trkpt>
      <trkpt lat="44.477" lon="4.53116">
        <ele>490</ele>
        <time>2021-02-17T10:59:55+01:00</time>
      </trkpt>
      <trkpt lat="44.47688" lon="4.53043">
        <ele>488</ele>
        <time>2021-02-17T11:00:00+01:00</time>
      </trkpt>
      <trkpt lat="44.47671" lon="4.52991">
        <ele>484</ele>
        <time>2021-02-17T11:00:05+01:00</time>
      </trkpt>
      <trkpt lat="44.47654" lon="4.52964">
        <ele>478</ele>
        <time>2021-02-17T11:00:10+01:00</time>
      </trkpt>
      <trkpt lat="44.47644" lon="4.52946">
        <ele>475</ele>
        <time>2021-02-17T11:00:15+01:00</time>
      </trkpt>
      <trkpt lat="44.47647" lon="4.52994">
        <ele>478</ele>
        <time>2021-02-17T11:00:20+01:00</time>
      </trkpt>
      <trkpt lat="44.47651" lon="4.53028">
        <ele>479</ele>
        <time>2021-02-17T11:00:25+01:00</time>
      </trkpt>
      <trkpt lat="44.4765" lon="4.53049">
        <ele>477</ele>
        <time>2021-02-17T11:00:30+01:00</time>
      </trkpt>
      <trkpt lat="44.47639" lon="4.53112">
        <ele>472</ele>
        <time>2021-02-17T11:00:35+01:00</time>
      </trkpt>
      <trkpt lat="44.47622" lon="4.53176">
        <ele>469</ele>
        <time>2021-02-17T11:00:40+01:00</time>
      </trkpt>
      <trkpt lat="44.47612" lon="4.532">
        <ele>463</ele>
        <time>2021-02-17T11:00:45+01:00</time>
      </trkpt>
      <trkpt lat="44.47618" lon="4.53251">
        <ele>464</ele>
        <time>2021-02-17T11:00:50+01:00</time>
      </trkpt>
      <trkpt lat="44.47641" lon="4.53285">
        <ele>466</ele>
        <time>2021-02-17T11:00:55+01:00</time>
      </trkpt>
      <trkpt lat="44.47658" lon="4.53333">
        <ele>463</ele>
        <time>2021-02-17T11:01:00+01:00</time>
      </trkpt>
      <trkpt lat="44.47674" lon="4.53412">
        <ele>463</ele>
        <time>2021-02-17T11:01:05+01:00</time>
      </trkpt>
      <trkpt lat="44.47656" lon="4.53453">
        <ele>460</ele>
        <time>2021-02-17T11:01:10+01:00</time>
      </trkpt>
      <trkpt lat="44.47633" lon="4.53491">
        <ele>457</ele>
        <time>2021-02-17T11:01:15+01:00</time>
      </trkpt>
      <trkpt lat="44.47576" lon="4.5353">
        <ele>447</ele>
        <time>2021-02-17T11:01:20+01:00</time>
      </trkpt>
      <trkpt lat="44.4753" lon="4.53571">
        <ele>443</ele>
        <time>2021-02-17T11:01:25+01:00</time>
      </trkpt>
      <trkpt lat="44.47509" lon="4.53571">
        <ele>436</ele>
        <time>2021-02-17T11:01:30+01:00</time>
      </trkpt>
      <trkpt lat="44.47488" lon="4.53582">
        <ele>432</ele>
        <time>2021-02-17T11:01:35+01:00</time>
      </trkpt>
      <trkpt lat="44.47454" lon="4.5364">
        <ele>423</ele>
        <time>2021-02-17T11:01:40+01:00</time>
      </trkpt>
      <trkpt lat="44.47439" lon="4.5367">
        <ele>420</ele>
        <time>2021-02-17T11:01:45+01:00</time>
      </trkpt>
      <trkpt lat="44.47439" lon="4.53706">
        <ele>413</ele>
        <time>2021-02-17T11:01:50+01:00</time>
      </trkpt>
      <trkpt lat="44.47449" lon="4.53747">
        <ele>407</ele>
        <time>2021-02-17T11:01:55+01:00</time>
      </trkpt>
      <trkpt lat="44.47443" lon="4.53766">
        <ele>403</ele>
        <time>2021-02-17T11:02:00+01:00</time>
      </trkpt>
      <trkpt lat="44.47387" lon="4.5379">
        <ele>392</ele>
        <time>2021-02-17T11:02:05+01:00</time>
      </trkpt>
      <trkpt lat="44.4735" lon="4.53828">
        <ele>385</ele>
        <time>2021-02-17T11:02:10+01:00</time>
      </trkpt>
      <trkpt lat="44.47289" lon="4.53861">
        <ele>375</ele>
        <time>2021-02-17T11:02:15+01:00</time>
      </trkpt>
      <trkpt lat="44.47247" lon="4.53884">
        <ele>372</ele>
        <time>2021-02-17T11:02:20+01:00</time>
      </trkpt>
      <trkpt lat="44.47235" lon="4.53908">
        <ele>373</ele>
        <time>2021-02-17T11:02:25+01:00</time>
      </trkpt>
      <trkpt lat="44.472" lon="4.53938">
        <ele>372</ele>
        <time>2021-02-17T11:02:30+01:00</time>
      </trkpt>
      <trkpt lat="44.47171" lon="4.53968">
        <ele>371</ele>
        <time>2021-02-17T11:02:35+01:00</time>
      </trkpt>
      <trkpt lat="44.47165" lon="4.53979">
        <ele>370</ele>
        <time>2021-02-17T11:02:40+01:00</time>
      </trkpt>
      <trkpt lat="44.47168" lon="4.54006">
        <ele>364</ele>
        <time>2021-02-17T11:02:45+01:00</time>
      </trkpt>
      <trkpt lat="44.47157" lon="4.54034">
        <ele>359</ele>
        <time>2021-02-17T11:02:50+01:00</time>
      </trkpt>
      <trkpt lat="44.47163" lon="4.54045">
        <ele>357</ele>
        <time>2021-02-17T11:02:55+01:00</time>
      </trkpt>
      <trkpt lat="44.47163" lon="4.54079">
        <ele>351</ele>
        <time>2021-02-17T11:03:00+01:00</time>
      </trkpt>
      <trkpt lat="44.47158" lon="4.54107">
        <ele>347</ele>
        <time>2021-02-17T11:03:05+01:00</time>
      </trkpt>
      <trkpt lat="44.47168" lon="4.54146">
        <ele>343</ele>
        <time>2021-02-17T11:03:10+01:00</time>
      </trkpt>
      <trkpt lat="44.47177" lon="4.54163">
        <ele>339</ele>
        <time>2021-02-17T11:03:15+01:00</time>
      </trkpt>
      <trkpt lat="44.47178" lon="4.54187">
        <ele>336</ele>
        <time>2021-02-17T11:03:20+01:00</time>
      </trkpt>
      <trkpt lat="44.4716" lon="4.54249">
        <ele>332</ele>
        <time>2021-02-17T11:03:25+01:00</time>
      </trkpt>
      <trkpt lat="44.47151" lon="4.54275">
        <ele>332</ele>
        <time>2021-02-17T11:03:30+01:00</time>
      </trkpt>
      <trkpt lat="44.47114" lon="4.54322">
        <ele>332</ele>
        <time>2021-02-17T11:03:35+01:00</time>
      </trkpt>
      <trkpt lat="44.4705" lon="4.54421">
        <ele>331</ele>
        <time>2021-02-17T11:03:40+01:00</time>
      </trkpt>
      <trkpt lat="44.47011" lon="4.54421">
        <ele>328</ele>
        <time>2021-02-17T11:03:45+01:00</time>
      </trkpt>
      <trkpt lat="44.46953" lon="4.54427">
        <ele>322</ele>
        <time>2021-02-17T11:03:50+01:00</time>
      </trkpt>
      <trkpt lat="44.46923" lon="4.54427">
        <ele>320</ele>
        <time>2021-02-17T11:03:55+01:00</time>
      </trkpt>
      <trkpt lat="44.46892" lon="4.54436">
        <ele>318</ele>
        <time>2021-02-17T11:04:00+01:00</time>
      </trkpt>
      <trkpt lat="44.46852" lon="4.54436">
        <ele>318</ele>
        <time>2021-02-17T11:04:05+01:00</time>
      </trkpt>
      <trkpt lat="44.46825" lon="4.54442">
        <ele>318</ele>
        <time>2021-02-17T11:04:10+01:00</time>
      </trkpt>
      <trkpt lat="44.4678" lon="4.54455">
        <ele>320</ele>
        <time>2021-02-17T11:04:15+01:00</time>
      </trkpt>
      <trkpt lat="44.46743" lon="4.54463">
        <ele>323</ele>
        <time>2021-02-17T11:04:20+01:00</time>
      </trkpt>
      <trkpt lat="44.46707" lon="4.54498">
        <ele>332</ele>
        <time>2021-02-17T11:04:25+01:00</time>
      </trkpt>
      <trkpt lat="44.46691" lon="4.54528">
        <ele>337</ele>
        <time>2021-02-17T11:04:30+01:00</time>
      </trkpt>
      <trkpt lat="44.46707" lon="4.54571">
        <ele>335</ele>
        <time>2021-02-17T11:04:35+01:00</time>
      </trkpt>
      <trkpt lat="44.4675" lon="4.54635">
        <ele>329</ele>
        <time>2021-02-17T11:04:40+01:00</time>
      </trkpt>
      <trkpt lat="44.46786" lon="4.54785">
        <ele>331</ele>
        <time>2021-02-17T11:04:45+01:00</time>
      </trkpt>
      <trkpt lat="44.46805" lon="4.54888">
        <ele>331</ele>
        <time>2021-02-17T11:04:50+01:00</time>
      </trkpt>
      <trkpt lat="44.46808" lon="4.5497">
        <ele>335</ele>
        <time>2021-02-17T11:04:55+01:00</time>
      </trkpt>
      <trkpt lat="44.46811" lon="4.55081">
        <ele>343</ele>
        <time>2021-02-17T11:05:00+01:00</time>
      </trkpt>
      <trkpt lat="44.46841" lon="4.55124">
        <ele>335</ele>
        <time>2021-02-17T11:05:05+01:00</time>
      </trkpt>
      <trkpt lat="44.46841" lon="4.55206">
        <ele>348</ele>
        <time>2021-02-17T11:05:10+01:00</time>
      </trkpt>
      <trkpt lat="44.46848" lon="4.55227">
        <ele>349</ele>
        <time>2021-02-17T11:05:15+01:00</time>
      </trkpt>
      <trkpt lat="44.46897" lon="4.553">
        <ele>342</ele>
        <time>2021-02-17T11:05:20+01:00</time>
      </trkpt>
      <trkpt lat="44.46897" lon="4.55403">
        <ele>346</ele>
        <time>2021-02-17T11:05:25+01:00</time>
      </trkpt>
      <trkpt lat="44.469" lon="4.55459">
        <ele>347</ele>
        <time>2021-02-17T11:05:30+01:00</time>
      </trkpt>
      <trkpt lat="44.46912" lon="4.55545">
        <ele>351</ele>
        <time>2021-02-17T11:05:35+01:00</time>
      </trkpt>
      <trkpt lat="44.46906" lon="4.55596">
        <ele>352</ele>
        <time>2021-02-17T11:05:40+01:00</time>
      </trkpt>
      <trkpt lat="44.46869" lon="4.55614">
        <ele>348</ele>
        <time>2021-02-17T11:05:45+01:00</time>
      </trkpt>
      <trkpt lat="44.46802" lon="4.55592">
        <ele>348</ele>
        <time>2021-02-17T11:05:50+01:00</time>
      </trkpt>
      <trkpt lat="44.46829" lon="4.55635">
        <ele>342</ele>
        <time>2021-02-17T11:05:55+01:00</time>
      </trkpt>
      <trkpt lat="44.469" lon="4.55687">
        <ele>339</ele>
        <time>2021-02-17T11:06:00+01:00</time>
      </trkpt>
      <trkpt lat="44.46927" lon="4.55717">
        <ele>338</ele>
        <time>2021-02-17T11:06:05+01:00</time>
      </trkpt>
      <trkpt lat="44.46952" lon="4.55738">
        <ele>336</ele>
        <time>2021-02-17T11:06:10+01:00</time>
      </trkpt>
      <trkpt lat="44.46967" lon="4.55768">
        <ele>337</ele>
        <time>2021-02-17T11:06:15+01:00</time>
      </trkpt>
      <trkpt lat="44.46961" lon="4.55813">
        <ele>341</ele>
        <time>2021-02-17T11:06:20+01:00</time>
      </trkpt>
      <trkpt lat="44.46926" lon="4.55845">
        <ele>342</ele>
        <time>2021-02-17T11:06:25+01:00</time>
      </trkpt>
      <trkpt lat="44.46869" lon="4.55897">
        <ele>345</ele>
        <time>2021-02-17T11:06:30+01:00</time>
      </trkpt>
      <trkpt lat="44.46834" lon="4.55942">
        <ele>346</ele>
        <time>2021-02-17T11:06:35+01:00</time>
      </trkpt>
      <trkpt lat="44.46841" lon="4.55983">
        <ele>349</ele>
        <time>2021-02-17T11:06:40+01:00</time>
      </trkpt>
      <trkpt lat="44.46906" lon="4.56006">
        <ele>355</ele>
        <time>2021-02-17T11:06:45+01:00</time>
      </trkpt>
      <trkpt lat="44.46952" lon="4.56004">
        <ele>358</ele>
        <time>2021-02-17T11:06:50+01:00</time>
      </trkpt>
      <trkpt lat="44.47007" lon="4.56008">
        <ele>361</ele>
        <time>2021-02-17T11:06:55+01:00</time>
      </trkpt>
      <trkpt lat="44.47025" lon="4.56069">
        <ele>360</ele>
        <time>2021-02-17T11:07:00+01:00</time>
      </trkpt>
      <trkpt lat="44.47047" lon="4.56159">
        <ele>365</ele>
        <time>2021-02-17T11:07:05+01:00</time>
      </trkpt>
      <trkpt lat="44.47044" lon="4.56202">
        <ele>363</ele>
        <time>2021-02-17T11:07:10+01:00</time>
      </trkpt>
      <trkpt lat="44.4708" lon="4.56253">
        <ele>363</ele>
        <time>2021-02-17T11:07:15+01:00</time>
      </trkpt>
      <trkpt lat="44.47166" lon="4.56296">
        <ele>358</ele>
        <time>2021-02-17T11:07:20+01:00</time>
      </trkpt>
      <trkpt lat="44.47233" lon="4.56352">
        <ele>353</ele>
        <time>2021-02-17T11:07:25+01:00</time>
      </trkpt>
      <trkpt lat="44.47289" lon="4.56408">
        <ele>354</ele>
        <time>2021-02-17T11:07:30+01:00</time>
      </trkpt>
      <trkpt lat="44.47301" lon="4.56433">
        <ele>355</ele>
        <time>2021-02-17T11:07:35+01:00</time>
      </trkpt>
      <trkpt lat="44.47246" lon="4.56541">
        <ele>356</ele>
        <time>2021-02-17T11:07:40+01:00</time>
      </trkpt>
      <trkpt lat="44.47209" lon="4.56588">
        <ele>357</ele>
        <time>2021-02-17T11:07:45+01:00</time>
      </trkpt>
      <trkpt lat="44.47187" lon="4.56601">
        <ele>355</ele>
        <time>2021-02-17T11:07:50+01:00</time>
      </trkpt>
      <trkpt lat="44.47187" lon="4.56652">
        <ele>353</ele>
        <time>2021-02-17T11:07:55+01:00</time>
      </trkpt>
      <trkpt lat="44.47243" lon="4.56588">
        <ele>360</ele>
        <time>2021-02-17T11:08:00+01:00</time>
      </trkpt>
      <trkpt lat="44.47301" lon="4.56541">
        <ele>358</ele>
        <time>2021-02-17T11:08:05+01:00</time>
      </trkpt>
      <trkpt lat="44.47313" lon="4.56562">
        <ele>361</ele>
        <time>2021-02-17T11:08:10+01:00</time>
      </trkpt>
      <trkpt lat="44.47338" lon="4.56652">
        <ele>364</ele>
        <time>2021-02-17T11:08:15+01:00</time>
      </trkpt>
      <trkpt lat="44.47417" lon="4.56665">
        <ele>363</ele>
        <time>2021-02-17T11:08:20+01:00</time>
      </trkpt>
      <trkpt lat="44.4753" lon="4.56734">
        <ele>367</ele>
        <time>2021-02-17T11:08:25+01:00</time>
      </trkpt>
      <trkpt lat="44.47598" lon="4.56734">
        <ele>371</ele>
        <time>2021-02-17T11:08:30+01:00</time>
      </trkpt>
      <trkpt lat="44.47668" lon="4.56759">
        <ele>370</ele>
        <time>2021-02-17T11:08:35+01:00</time>
      </trkpt>
      <trkpt lat="44.4773" lon="4.56802">
        <ele>362</ele>
        <time>2021-02-17T11:08:40+01:00</time>
      </trkpt>
      <trkpt lat="44.47797" lon="4.56867">
        <ele>361</ele>
        <time>2021-02-17T11:08:45+01:00</time>
      </trkpt>
      <trkpt lat="44.47821" lon="4.5688">
        <ele>362</ele>
        <time>2021-02-17T11:08:50+01:00</time>
      </trkpt>
      <trkpt lat="44.47895" lon="4.56905">
        <ele>368</ele>
        <time>2021-02-17T11:08:55+01:00</time>
      </trkpt>
      <trkpt lat="44.47929" lon="4.5691">
        <ele>371</ele>
        <time>2021-02-17T11:09:00+01:00</time>
      </trkpt>
      <trkpt lat="44.48039" lon="4.56862">
        <ele>367</ele>
        <time>2021-02-17T11:09:05+01:00</time>
      </trkpt>
      <trkpt lat="44.48109" lon="4.56918">
        <ele>364</ele>
        <time>2021-02-17T11:09:10+01:00</time>
      </trkpt>
      <trkpt lat="44.48164" lon="4.57017">
        <ele>370</ele>
        <time>2021-02-17T11:09:15+01:00</time>
      </trkpt>
      <trkpt lat="44.48192" lon="4.5709">
        <ele>368</ele>
        <time>2021-02-17T11:09:20+01:00</time>
      </trkpt>
      <trkpt lat="44.48244" lon="4.57193">
        <ele>362</ele>
        <time>2021-02-17T11:09:25+01:00</time>
      </trkpt>
      <trkpt lat="44.48241" lon="4.57236">
        <ele>359</ele>
        <time>2021-02-17T11:09:30+01:00</time>
      </trkpt>
      <trkpt lat="44.48226" lon="4.57296">
        <ele>354</ele>
        <time>2021-02-17T11:09:35+01:00</time>
      </trkpt>
      <trkpt lat="44.48229" lon="4.57309">
        <ele>353</ele>
        <time>2021-02-17T11:09:40+01:00</time>
      </trkpt>
      <trkpt lat="44.48287" lon="4.57352">
        <ele>350</ele>
        <time>2021-02-17T11:09:45+01:00</time>
      </trkpt>
      <trkpt lat="44.48327" lon="4.57412">
        <ele>349</ele>
        <time>2021-02-17T11:09:50+01:00</time>
      </trkpt>
      <trkpt lat="44.48412" lon="4.57446">
        <ele>348</ele>
        <time>2021-02-17T11:09:55+01:00</time>
      </trkpt>
      <trkpt lat="44.4851" lon="4.57468">
        <ele>337</ele>
        <time>2021-02-17T11:10:00+01:00</time>
      </trkpt>
      <trkpt lat="44.48636" lon="4.57515">
        <ele>336</ele>
        <time>2021-02-17T11:10:05+01:00</time>
      </trkpt>
      <trkpt lat="44.48685" lon="4.57541">
        <ele>334</ele>
        <time>2021-02-17T11:10:10+01:00</time>
      </trkpt>
      <trkpt lat="44.48709" lon="4.57575">
        <ele>334</ele>
        <time>2021-02-17T11:10:15+01:00</time>
      </trkpt>
      <trkpt lat="44.48728" lon="4.57648">
        <ele>326</ele>
        <time>2021-02-17T11:10:20+01:00</time>
      </trkpt>
      <trkpt lat="44.48798" lon="4.57708">
        <ele>312</ele>
        <time>2021-02-17T11:10:25+01:00</time>
      </trkpt>
      <trkpt lat="44.48807" lon="4.57734">
        <ele>309</ele>
        <time>2021-02-17T11:10:30+01:00</time>
      </trkpt>
      <trkpt lat="44.48853" lon="4.57777">
        <ele>304</ele>
        <time>2021-02-17T11:10:35+01:00</time>
      </trkpt>
      <trkpt lat="44.48921" lon="4.57824">
        <ele>308</ele>
        <time>2021-02-17T11:10:40+01:00</time>
      </trkpt>
      <trkpt lat="44.48945" lon="4.57884">
        <ele>310</ele>
        <time>2021-02-17T11:10:45+01:00</time>
      </trkpt>
      <trkpt lat="44.49019" lon="4.57914">
        <ele>311</ele>
        <time>2021-02-17T11:10:50+01:00</time>
      </trkpt>
      <trkpt lat="44.48918" lon="4.57983">
        <ele>306</ele>
        <time>2021-02-17T11:10:55+01:00</time>
      </trkpt>
      <trkpt lat="44.48896" lon="4.57987">
        <ele>299</ele>
        <time>2021-02-17T11:11:00+01:00</time>
      </trkpt>
      <trkpt lat="44.48893" lon="4.58068">
        <ele>299</ele>
        <time>2021-02-17T11:11:05+01:00</time>
      </trkpt>
      <trkpt lat="44.48899" lon="4.5812">
        <ele>305</ele>
        <time>2021-02-17T11:11:10+01:00</time>
      </trkpt>
      <trkpt lat="44.48881" lon="4.58171">
        <ele>305</ele>
        <time>2021-02-17T11:11:15+01:00</time>
      </trkpt>
      <trkpt lat="44.49" lon="4.5839">
        <ele>315</ele>
        <time>2021-02-17T11:11:20+01:00</time>
      </trkpt>
      <trkpt lat="44.49046" lon="4.58463">
        <ele>309</ele>
        <time>2021-02-17T11:11:25+01:00</time>
      </trkpt>
      <trkpt lat="44.49071" lon="4.58575">
        <ele>295</ele>
        <time>2021-02-17T11:11:30+01:00</time>
      </trkpt>
      <trkpt lat="44.49095" lon="4.58704">
        <ele>288</ele>
        <time>2021-02-17T11:11:35+01:00</time>
      </trkpt>
      <trkpt lat="44.49135" lon="4.58764">
        <ele>285</ele>
        <time>2021-02-17T11:11:40+01:00</time>
      </trkpt>
      <trkpt lat="44.49135" lon="4.58789">
        <ele>287</ele>
        <time>2021-02-17T11:11:45+01:00</time>
      </trkpt>
      <trkpt lat="44.49132" lon="4.58858">
        <ele>289</ele>
        <time>2021-02-17T11:11:50+01:00</time>
      </trkpt>
      <trkpt lat="44.49214" lon="4.58952">
        <ele>286</ele>
        <time>2021-02-17T11:11:55+01:00</time>
      </trkpt>
      <trkpt lat="44.49248" lon="4.59025">
        <ele>288</ele>
        <time>2021-02-17T11:12:00+01:00</time>
      </trkpt>
      <trkpt lat="44.49267" lon="4.59107">
        <ele>281</ele>
        <time>2021-02-17T11:12:05+01:00</time>
      </trkpt>
      <trkpt lat="44.49263" lon="4.59141">
        <ele>277</ele>
        <time>2021-02-17T11:12:10+01:00</time>
      </trkpt>
      <trkpt lat="44.49263" lon="4.59154">
        <ele>275</ele>
        <time>2021-02-17T11:12:15+01:00</time>
      </trkpt>
      <trkpt lat="44.49279" lon="4.59188">
        <ele>270</ele>
        <time>2021-02-17T11:12:20+01:00</time>
      </trkpt>
      <trkpt lat="44.49291" lon="4.59244">
        <ele>265</ele>
        <time>2021-02-17T11:12:25+01:00</time>
      </trkpt>
      <trkpt lat="44.49282" lon="4.59322">
        <ele>255</ele>
        <time>2021-02-17T11:12:30+01:00</time>
      </trkpt>
      <trkpt lat="44.49257" lon="4.5939">
        <ele>249</ele>
        <time>2021-02-17T11:12:35+01:00</time>
      </trkpt>
      <trkpt lat="44.49322" lon="4.59364">
        <ele>249</ele>
        <time>2021-02-17T11:12:40+01:00</time>
      </trkpt>
      <trkpt lat="44.49361" lon="4.59352">
        <ele>247</ele>
        <time>2021-02-17T11:12:45+01:00</time>
      </trkpt>
      <trkpt lat="44.49417" lon="4.59334">
        <ele>241</ele>
        <time>2021-02-17T11:12:50+01:00</time>
      </trkpt>
      <trkpt lat="44.49456" lon="4.59364">
        <ele>232</ele>
        <time>2021-02-17T11:12:55+01:00</time>
      </trkpt>
      <trkpt lat="44.49524" lon="4.59377">
        <ele>227</ele>
        <time>2021-02-17T11:13:00+01:00</time>
      </trkpt>
      <trkpt lat="44.49484" lon="4.59304">
        <ele>225</ele>
        <time>2021-02-17T11:13:05+01:00</time>
      </trkpt>
      <trkpt lat="44.49453" lon="4.59244">
        <ele>224</ele>
        <time>2021-02-17T11:13:10+01:00</time>
      </trkpt>
      <trkpt lat="44.49447" lon="4.5918">
        <ele>225</ele>
        <time>2021-02-17T11:13:15+01:00</time>
      </trkpt>
      <trkpt lat="44.49493" lon="4.59171">
        <ele>207</ele>
        <time>2021-02-17T11:13:20+01:00</time>
      </trkpt>
      <trkpt lat="44.49493" lon="4.5912">
        <ele>211</ele>
        <time>2021-02-17T11:13:25+01:00</time>
      </trkpt>
      <trkpt lat="44.49496" lon="4.59064">
        <ele>216</ele>
        <time>2021-02-17T11:13:30+01:00</time>
      </trkpt>
      <trkpt lat="44.49518" lon="4.59055">
        <ele>216</ele>
        <time>2021-02-17T11:13:35+01:00</time>
      </trkpt>
      <trkpt lat="44.49533" lon="4.59116">
        <ele>206</ele>
        <time>2021-02-17T11:13:40+01:00</time>
      </trkpt>
      <trkpt lat="44.49585" lon="4.59137">
        <ele>196</ele>
        <time>2021-02-17T11:13:45+01:00</time>
      </trkpt>
      <trkpt lat="44.49637" lon="4.59146">
        <ele>191</ele>
        <time>2021-02-17T11:13:50+01:00</time>
      </trkpt>
      <trkpt lat="44.49698" lon="4.59124">
        <ele>186</ele>
        <time>2021-02-17T11:13:55+01:00</time>
      </trkpt>
      <trkpt lat="44.49713" lon="4.59103">
        <ele>185</ele>
        <time>2021-02-17T11:14:00+01:00</time>
      </trkpt>
      <trkpt lat="44.49698" lon="4.59008">
        <ele>186</ele>
        <time>2021-02-17T11:14:05+01:00</time>
      </trkpt>
      <trkpt lat="44.49698" lon="4.58905">
        <ele>180</ele>
        <time>2021-02-17T11:14:10+01:00</time>
      </trkpt>
      <trkpt lat="44.49713" lon="4.58807">
        <ele>171</ele>
        <time>2021-02-17T11:14:15+01:00</time>
      </trkpt>
      <trkpt lat="44.49744" lon="4.58656">
        <ele>157</ele>
        <time>2021-02-17T11:14:20+01:00</time>
      </trkpt>
      <trkpt lat="44.49769" lon="4.58596">
        <ele>155</ele>
        <time>2021-02-17T11:14:25+01:00</time>
      </trkpt>
      <trkpt lat="44.49769" lon="4.58553">
        <ele>154</ele>
        <time>2021-02-17T11:14:30+01:00</time>
      </trkpt>
      <trkpt lat="44.49744" lon="4.58506">
        <ele>152</ele>
        <time>2021-02-17T11:14:35+01:00</time>
      </trkpt>
      <trkpt lat="44.49765" lon="4.58416">
        <ele>151</ele>
        <time>2021-02-17T11:14:40+01:00</time>
      </trkpt>
      <trkpt lat="44.49778" lon="4.5839">
        <ele>154</ele>
        <time>2021-02-17T11:14:45+01:00</time>
      </trkpt>
      <trkpt lat="44.49784" lon="4.58313">
        <ele>159</ele>
        <time>2021-02-17T11:14:50+01:00</time>
      </trkpt>
      <trkpt lat="44.49796" lon="4.58197">
        <ele>162</ele>
        <time>2021-02-17T11:14:55+01:00</time>
      </trkpt>
      <trkpt lat="44.49814" lon="4.58154">
        <ele>164</ele>
        <time>2021-02-17T11:15:00+01:00</time>
      </trkpt>
      <trkpt lat="44.49839" lon="4.58043">
        <ele>169</ele>
        <time>2021-02-17T11:15:05+01:00</time>
      </trkpt>
      <trkpt lat="44.49879" lon="4.5791">
        <ele>174</ele>
        <time>2021-02-17T11:15:10+01:00</time>
      </trkpt>
      <trkpt lat="44.49903" lon="4.57824">
        <ele>176</ele>
        <time>2021-02-17T11:15:15+01:00</time>
      </trkpt>
      <trkpt lat="44.49922" lon="4.57751">
        <ele>176</ele>
        <time>2021-02-17T11:15:20+01:00</time>
      </trkpt>
      <trkpt lat="44.49937" lon="4.57721">
        <ele>176</ele>
        <time>2021-02-17T11:15:25+01:00</time>
      </trkpt>
      <trkpt lat="44.49958" lon="4.57678">
        <ele>176</ele>
        <time>2021-02-17T11:15:30+01:00</time>
      </trkpt>
      <trkpt lat="44.49958" lon="4.57639">
        <ele>176</ele>
        <time>2021-02-17T11:15:35+01:00</time>
      </trkpt>
      <trkpt lat="44.49964" lon="4.57618">
        <ele>176</ele>
        <time>2021-02-17T11:15:40+01:00</time>
      </trkpt>
      <trkpt lat="44.50007" lon="4.57596">
        <ele>177</ele>
        <time>2021-02-17T11:15:45+01:00</time>
      </trkpt>
      <trkpt lat="44.50019" lon="4.57588">
        <ele>175.1</ele>
        <time>2021-02-17T11:15:50+01:00</time>
      </trkpt>
      <trkpt lat="44.50024" lon="4.57581">
        <ele>175.6</ele>
        <time>2021-02-17T11:15:55+01:00</time>
      </trkpt>
      <trkpt lat="44.50043" lon="4.57641">
        <ele>178.1</ele>
      </trkpt>
      <trkpt lat="44.50061" lon="4.57692">
        <ele>179</ele>
      </trkpt>
      <trkpt lat="44.50074" lon="4.57745">
        <ele>178.1</ele>
      </trkpt>
      <trkpt lat="44.50121" lon="4.57898">
        <ele>176.7</ele>
        <time>2021-02-17T11:16:00+01:00</time>
      </trkpt>
    </trkseg>
  </trk>
</gpx>